| Date | Time | Temp. (oF) | Dew Point (oF) | Rel. Hum. (%) | Press. (in.) | Wind Dir. | Wind Speed (mph) | Hourly Rainfall (in.) |
|
|---|---|---|---|---|---|---|---|---|---|
| 1 | 03/23 | 00:00 | 35 | 10 | 36 | 30.14 | NNW | 0 | 0.00 |
| 2 | 03/22 | 23:00 | 36 | 11 | 36 | 30.11 | NNW | 0 | 0.00 |
| 3 | 03/22 | 22:00 | 37 | 11 | 34 | 30.09 | NNW | 4 | 0.00 |
| 4 | 03/22 | 21:00 | 39 | 10 | 31 | 30.07 | N | 5 | 0.00 |
| 5 | 03/22 | 20:00 | 41 | 10 | 28 | 30.05 | WNW | 7 | 0.00 |
| 6 | 03/22 | 19:00 | 43 | 11 | 27 | 30.02 | WSW | 5 | 0.00 |
| 7 | 03/22 | 18:00 | 44 | 11 | 27 | 30.01 | WNW | 6 | 0.00 |
| 8 | 03/22 | 17:00 | 45 | 11 | 25 | 30.01 | NNW | 8 | 0.00 |
| 9 | 03/22 | 16:00 | 44 | 11 | 27 | 30.02 | NNE | 5 | 0.00 |
| 10 | 03/22 | 15:00 | 45 | 12 | 27 | 30.05 | W | 5 | 0.00 |
| 11 | 03/22 | 14:00 | 43 | 13 | 30 | 30.08 | WNW | 12 | 0.00 |
| 12 | 03/22 | 13:00 | 41 | 16 | 37 | 30.10 | W | 6 | 0.00 |
| 13 | 03/22 | 12:00 | 39 | 13 | 35 | 30.11 | W | 9 | 0.00 |
| 14 | 03/22 | 11:00 | 38 | 15 | 40 | 30.12 | N | 7 | 0.00 |
| 15 | 03/22 | 10:00 | 36 | 16 | 44 | 30.12 | N | 12 | 0.00 |
| 16 | 03/22 | 09:00 | 36 | 20 | 53 | 30.10 | N | 7 | 0.00 |
| 17 | 03/22 | 08:00 | 35 | 22 | 61 | 30.08 | WNW | 10 | 0.00 |
| 18 | 03/22 | 07:00 | 35 | 24 | 64 | 30.06 | WNW | 10 | 0.00 |
| 19 | 03/22 | 06:00 | 36 | 23 | 61 | 30.05 | WNW | 7 | 0.00 |
| 20 | 03/22 | 05:00 | 37 | 26 | 66 | 30.03 | W | 5 | 0.00 |
| 21 | 03/22 | 04:00 | 38 | 26 | 64 | 30.01 | W | 4 | 0.00 |
| 22 | 03/22 | 03:00 | 39 | 27 | 63 | 30.00 | WSW | 8 | 0.00 |
| 23 | 03/22 | 02:00 | 41 | 28 | 61 | 30.00 | WNW | 4 | 0.00 |
| 24 | 03/22 | 01:00 | 43 | 30 | 62 | 29.99 | WNW | 8 | 0.00 |